createdAt,value
2022-11-29T00:00:18.465Z,1000.38
2022-11-29T00:01:18.392Z,1000.38
2022-11-29T00:02:18.451Z,1000.37
2022-11-29T00:03:18.410Z,1000.36
2022-11-29T00:04:18.377Z,1000.37
2022-11-29T00:05:18.346Z,1000.36
2022-11-29T00:06:18.298Z,1000.35
2022-11-29T00:07:18.323Z,1000.33
2022-11-29T00:08:18.258Z,1000.37
2022-11-29T00:09:18.245Z,1000.36
2022-11-29T00:10:18.234Z,1000.38
2022-11-29T00:11:18.239Z,1000.38
2022-11-29T00:12:18.184Z,1000.38
2022-11-29T00:13:18.168Z,1000.39
2022-11-29T00:14:18.154Z,1000.39
2022-11-29T00:15:18.161Z,1000.39
2022-11-29T00:16:18.157Z,1000.38
2022-11-29T00:17:18.123Z,1000.37
2022-11-29T00:18:18.079Z,1000.37
2022-11-29T00:19:18.062Z,1000.39
2022-11-29T00:20:18.044Z,1000.39
2022-11-29T00:21:18.063Z,1000.35
2022-11-29T00:22:18.017Z,1000.39
2022-11-29T00:23:17.982Z,1000.39
2022-11-29T00:24:17.986Z,1000.36
2022-11-29T00:25:17.950Z,1000.37
2022-11-29T00:26:17.930Z,1000.39
2022-11-29T00:27:17.907Z,1000.41
2022-11-29T00:28:17.907Z,1000.37
2022-11-29T00:29:17.877Z,1000.40
2022-11-29T00:30:17.856Z,1000.42
2022-11-29T00:31:17.863Z,1000.43
2022-11-29T00:32:17.846Z,1000.46
2022-11-29T00:33:17.796Z,1000.49
2022-11-29T00:34:17.785Z,1000.47
2022-11-29T00:35:17.760Z,1000.48
2022-11-29T00:36:17.773Z,1000.45
2022-11-29T00:37:17.762Z,1000.47
2022-11-29T00:38:17.714Z,1000.46
2022-11-29T00:39:17.689Z,1000.48
2022-11-29T00:40:17.673Z,1000.47
2022-11-29T00:41:17.651Z,1000.49
2022-11-29T00:42:17.640Z,1000.44
2022-11-29T00:43:17.678Z,1000.46
2022-11-29T00:44:20.347Z,1000.48
2022-11-29T00:45:17.576Z,1000.43
2022-11-29T00:46:17.599Z,1000.44
2022-11-29T00:47:17.555Z,1000.43
2022-11-29T00:48:17.528Z,1000.43
2022-11-29T00:49:17.512Z,1000.43
2022-11-29T00:50:17.491Z,1000.42
2022-11-29T00:51:17.468Z,1000.40
2022-11-29T00:52:17.451Z,1000.47
2022-11-29T00:53:17.432Z,1000.40
2022-11-29T00:54:17.443Z,1000.40
2022-11-29T00:55:17.406Z,1000.39
2022-11-29T00:56:17.384Z,1000.35
2022-11-29T00:57:17.367Z,1000.38
2022-11-29T00:58:17.366Z,1000.39
2022-11-29T00:59:17.322Z,1000.37
2022-11-29T01:00:17.336Z,1000.38
2022-11-29T01:01:17.304Z,1000.44
2022-11-29T01:02:17.326Z,1000.44
2022-11-29T01:03:17.244Z,1000.43
2022-11-29T01:04:17.233Z,1000.42
2022-11-29T01:05:17.267Z,1000.48
2022-11-29T01:06:17.198Z,1000.47
2022-11-29T01:07:17.185Z,1000.53
2022-11-29T01:08:17.166Z,1000.55
2022-11-29T01:09:17.138Z,1000.52
2022-11-29T01:10:17.121Z,1000.55
2022-11-29T01:11:17.114Z,1000.55
2022-11-29T01:12:17.085Z,1000.52
2022-11-29T01:13:17.070Z,1000.58
2022-11-29T01:14:17.049Z,1000.57
2022-11-29T01:15:17.026Z,1000.56
2022-11-29T01:16:17.082Z,1000.53
2022-11-29T01:17:17.016Z,1000.57
2022-11-29T01:18:16.978Z,1000.55
2022-11-29T01:19:16.952Z,1000.55
2022-11-29T01:20:16.945Z,1000.58
2022-11-29T01:21:16.917Z,1000.61
2022-11-29T01:22:16.904Z,1000.57
2022-11-29T01:23:16.884Z,1000.56
2022-11-29T01:24:16.868Z,1000.54
2022-11-29T01:25:16.853Z,1000.53
2022-11-29T01:26:16.836Z,1000.55
2022-11-29T01:27:16.832Z,1000.51
2022-11-29T01:28:16.796Z,1000.54
2022-11-29T01:29:16.776Z,1000.58
2022-11-29T01:30:16.755Z,1000.57
2022-11-29T01:31:16.831Z,1000.57
2022-11-29T01:32:16.745Z,1000.54
2022-11-29T01:33:16.705Z,1000.54
2022-11-29T01:34:16.691Z,1000.56
2022-11-29T01:35:16.663Z,1000.55
2022-11-29T01:36:16.663Z,1000.55
2022-11-29T01:37:16.674Z,1000.53
2022-11-29T01:38:16.610Z,1000.57
2022-11-29T01:39:16.590Z,1000.53
2022-11-29T01:40:16.581Z,1000.59
2022-11-29T01:41:16.552Z,1000.59
2022-11-29T01:42:16.534Z,1000.55
2022-11-29T01:43:16.519Z,1000.57
2022-11-29T01:44:16.498Z,1000.60
2022-11-29T01:45:16.481Z,1000.61
2022-11-29T01:46:16.517Z,1000.59
2022-11-29T01:47:16.468Z,1000.60
2022-11-29T01:48:16.460Z,1000.61
2022-11-29T01:49:16.404Z,1000.63
2022-11-29T01:50:16.390Z,1000.63
2022-11-29T01:51:16.370Z,1000.63
2022-11-29T01:52:16.403Z,1000.64
2022-11-29T01:53:16.337Z,1000.65
2022-11-29T01:54:16.315Z,1000.60
2022-11-29T01:55:16.315Z,1000.67
2022-11-29T01:56:16.356Z,1000.63
2022-11-29T01:57:16.262Z,1000.68
2022-11-29T01:58:16.238Z,1000.64
2022-11-29T01:59:16.222Z,1000.64
2022-11-29T02:00:16.206Z,1000.68
2022-11-29T02:01:16.229Z,1000.66
2022-11-29T02:02:16.215Z,1000.68
2022-11-29T02:03:16.150Z,1000.69
2022-11-29T02:04:16.130Z,1000.68
2022-11-29T02:05:16.124Z,1000.72
2022-11-29T02:06:16.098Z,1000.68
2022-11-29T02:07:16.125Z,1000.68
2022-11-29T02:08:16.055Z,1000.72
2022-11-29T02:09:16.050Z,1000.74
2022-11-29T02:10:16.046Z,1000.72
2022-11-29T02:11:16.059Z,1000.72
2022-11-29T02:12:15.988Z,1000.71
2022-11-29T02:13:15.965Z,1000.67
2022-11-29T02:14:15.967Z,1000.71
2022-11-29T02:15:15.933Z,1000.73
2022-11-29T02:16:15.950Z,1000.72
2022-11-29T02:17:15.928Z,1000.72
2022-11-29T02:18:15.885Z,1000.72
2022-11-29T02:19:15.857Z,1000.72
2022-11-29T02:20:15.840Z,1000.73
2022-11-29T02:21:15.820Z,1000.74
2022-11-29T02:22:15.827Z,1000.75
2022-11-29T02:23:15.813Z,1000.75
2022-11-29T02:24:15.765Z,1000.75
2022-11-29T02:25:15.749Z,1000.78
2022-11-29T02:26:15.724Z,1000.77
2022-11-29T02:27:15.718Z,1000.78
2022-11-29T02:28:15.718Z,1000.79
2022-11-29T02:29:15.675Z,1000.80
2022-11-29T02:30:15.670Z,1000.80
2022-11-29T02:31:15.684Z,1000.80
2022-11-29T02:32:15.638Z,1000.79
2022-11-29T02:33:15.643Z,1000.79
2022-11-29T02:34:15.585Z,1000.77
2022-11-29T02:35:15.562Z,1000.80
2022-11-29T02:36:15.554Z,1000.81
2022-11-29T02:37:15.528Z,1000.81
2022-11-29T02:38:15.509Z,1000.85
2022-11-29T02:39:15.492Z,1000.84
2022-11-29T02:40:15.487Z,1000.85
2022-11-29T02:41:15.450Z,1000.79
2022-11-29T02:42:15.439Z,1000.80
2022-11-29T02:43:15.423Z,1000.83
2022-11-29T02:44:15.404Z,1000.86
2022-11-29T02:45:15.380Z,1000.90
2022-11-29T02:46:15.433Z,1000.83
2022-11-29T02:47:15.350Z,1000.85
2022-11-29T02:48:15.321Z,1000.81
2022-11-29T02:49:15.371Z,1000.85
2022-11-29T02:50:15.288Z,1000.86
2022-11-29T02:51:15.274Z,1000.86
2022-11-29T02:52:15.264Z,1000.89
2022-11-29T02:53:15.248Z,1000.90
2022-11-29T02:54:15.216Z,1000.87
2022-11-29T02:55:15.200Z,1000.91
2022-11-29T02:56:15.208Z,1000.89
2022-11-29T02:57:15.159Z,1000.88
2022-11-29T02:58:15.141Z,1000.89
2022-11-29T02:59:15.123Z,1000.87
2022-11-29T03:00:15.108Z,1000.89
2022-11-29T03:01:15.172Z,1000.92
2022-11-29T03:02:15.104Z,1000.91
2022-11-29T03:03:15.050Z,1000.97
2022-11-29T03:04:15.034Z,1000.98
2022-11-29T03:05:15.015Z,1000.98
2022-11-29T03:06:15.026Z,1000.98
2022-11-29T03:07:15.048Z,1001.01
2022-11-29T03:08:14.977Z,1001.04
2022-11-29T03:09:14.943Z,1001.03
2022-11-29T03:10:14.919Z,1001.02
2022-11-29T03:11:14.904Z,1001.00
2022-11-29T03:12:14.916Z,1001.03
2022-11-29T03:13:14.866Z,1001.06
2022-11-29T03:14:14.851Z,1001.08
2022-11-29T03:15:14.860Z,1001.07
2022-11-29T03:16:15.004Z,1001.10
2022-11-29T03:17:14.790Z,1001.10
2022-11-29T03:18:14.801Z,1001.14
2022-11-29T03:19:14.758Z,1001.12
2022-11-29T03:20:14.740Z,1001.14
2022-11-29T03:21:14.744Z,1001.12
2022-11-29T03:22:14.698Z,1001.14
2022-11-29T03:23:14.717Z,1001.15
2022-11-29T03:24:14.692Z,1001.15
2022-11-29T03:25:14.647Z,1001.18
2022-11-29T03:26:14.629Z,1001.18
2022-11-29T03:27:14.640Z,1001.20
2022-11-29T03:28:14.590Z,1001.18
2022-11-29T03:29:14.629Z,1001.19
2022-11-29T03:30:14.568Z,1001.18
2022-11-29T03:31:14.580Z,1001.19
2022-11-29T03:32:14.515Z,1001.19
2022-11-29T03:33:14.501Z,1001.21
2022-11-29T03:34:14.482Z,1001.23
2022-11-29T03:35:14.492Z,1001.22
2022-11-29T03:36:14.444Z,1001.22
2022-11-29T03:37:14.428Z,1001.20
2022-11-29T03:38:14.409Z,1001.26
2022-11-29T03:39:14.444Z,1001.25
2022-11-29T03:40:14.366Z,1001.25
2022-11-29T03:41:14.350Z,1001.30
2022-11-29T03:42:14.330Z,1001.32
2022-11-29T03:43:14.315Z,1001.31
2022-11-29T03:44:14.300Z,1001.35
2022-11-29T03:45:14.305Z,1001.30
2022-11-29T03:46:14.346Z,1001.33
2022-11-29T03:47:14.241Z,1001.37
2022-11-29T03:48:14.243Z,1001.34
2022-11-29T03:49:14.206Z,1001.36
2022-11-29T03:50:14.188Z,1001.37
2022-11-29T03:51:14.196Z,1001.36
2022-11-29T03:52:14.156Z,1001.34
2022-11-29T03:53:14.132Z,1001.38
2022-11-29T03:54:14.112Z,1001.35
2022-11-29T03:55:14.105Z,1001.37
2022-11-29T03:56:14.124Z,1001.39
2022-11-29T03:57:14.062Z,1001.33
2022-11-29T03:58:14.043Z,1001.35
2022-11-29T03:59:14.023Z,1001.32
2022-11-29T04:00:14.001Z,1001.33
2022-11-29T04:01:14.019Z,1001.35
2022-11-29T04:02:14.059Z,1001.35
2022-11-29T04:03:13.957Z,1001.32
2022-11-29T04:04:13.938Z,1001.35
2022-11-29T04:05:13.935Z,1001.37
2022-11-29T04:06:13.894Z,1001.41
2022-11-29T04:07:13.907Z,1001.39
2022-11-29T04:08:13.857Z,1001.36
2022-11-29T04:09:13.906Z,1001.37
2022-11-29T04:10:13.821Z,1001.35
2022-11-29T04:11:13.819Z,1001.37
2022-11-29T04:12:13.786Z,1001.36
2022-11-29T04:13:13.768Z,1001.37
2022-11-29T04:14:13.750Z,1001.38
2022-11-29T04:15:15.543Z,1001.36
2022-11-29T04:16:13.744Z,1001.37
2022-11-29T04:17:13.696Z,1001.36
2022-11-29T04:18:13.676Z,1001.39
2022-11-29T04:19:13.683Z,1001.37
2022-11-29T04:20:13.637Z,1001.36
2022-11-29T04:21:13.624Z,1001.38
2022-11-29T04:22:13.607Z,1001.41
2022-11-29T04:23:13.585Z,1001.42
2022-11-29T04:24:13.624Z,1001.41
2022-11-29T04:25:13.550Z,1001.44
2022-11-29T04:26:13.528Z,1001.46
2022-11-29T04:27:13.533Z,1001.41
2022-11-29T04:28:13.493Z,1001.46
2022-11-29T04:29:13.475Z,1001.46
2022-11-29T04:30:13.485Z,1001.39
2022-11-29T04:31:13.464Z,1001.46
2022-11-29T04:32:13.450Z,1001.45
2022-11-29T04:33:13.405Z,1001.48
2022-11-29T04:34:13.382Z,1001.52
2022-11-29T04:35:13.384Z,1001.47
2022-11-29T04:36:13.384Z,1001.49
2022-11-29T04:37:13.409Z,1001.48
2022-11-29T04:38:13.343Z,1001.58
2022-11-29T04:39:13.294Z,1001.57
2022-11-29T04:40:13.276Z,1001.56
2022-11-29T04:41:13.257Z,1001.54
2022-11-29T04:42:13.237Z,1001.60
2022-11-29T04:43:13.220Z,1001.60
2022-11-29T04:44:13.212Z,1001.62
2022-11-29T04:45:13.184Z,1001.64
2022-11-29T04:46:13.218Z,1001.61
2022-11-29T04:47:13.206Z,1001.64
2022-11-29T04:48:13.125Z,1001.63
2022-11-29T04:49:13.111Z,1001.64
2022-11-29T04:50:13.093Z,1001.65
2022-11-29T04:51:13.076Z,1001.68
2022-11-29T04:52:13.055Z,1001.65
2022-11-29T04:53:13.071Z,1001.64
2022-11-29T04:54:13.022Z,1001.68
2022-11-29T04:55:17.155Z,1001.67
2022-11-29T04:56:12.979Z,1001.68
2022-11-29T04:57:12.967Z,1001.69
2022-11-29T04:58:12.995Z,1001.69
2022-11-29T04:59:12.927Z,1001.74
2022-11-29T05:00:12.919Z,1001.79
2022-11-29T05:01:12.940Z,1001.79
2022-11-29T05:02:12.869Z,1001.75
2022-11-29T05:03:12.875Z,1001.78
2022-11-29T05:04:12.890Z,1001.82
2022-11-29T05:05:12.828Z,1001.84
2022-11-29T05:06:12.798Z,1001.85
2022-11-29T05:07:12.778Z,1001.84
2022-11-29T05:08:12.768Z,1001.83
2022-11-29T05:09:12.744Z,1001.83
2022-11-29T05:10:12.757Z,1001.83
2022-11-29T05:11:12.716Z,1001.84
2022-11-29T05:12:12.690Z,1001.84
2022-11-29T05:13:12.686Z,1001.85
2022-11-29T05:14:12.653Z,1001.84
2022-11-29T05:15:12.661Z,1001.85
2022-11-29T05:16:12.652Z,1001.87
2022-11-29T05:17:12.600Z,1001.82
2022-11-29T05:18:12.585Z,1001.89
2022-11-29T05:19:12.565Z,1001.87
2022-11-29T05:20:12.568Z,1001.84
2022-11-29T05:21:12.528Z,1001.89
2022-11-29T05:22:12.531Z,1001.85
2022-11-29T05:23:12.492Z,1001.85
2022-11-29T05:24:12.467Z,1001.86
2022-11-29T05:25:12.453Z,1001.91
2022-11-29T05:26:12.431Z,1001.86
2022-11-29T05:27:12.452Z,1001.88
2022-11-29T05:28:12.400Z,1001.90
2022-11-29T05:29:12.384Z,1001.90
2022-11-29T05:30:12.367Z,1001.88
2022-11-29T05:31:12.379Z,1001.88
2022-11-29T05:32:12.324Z,1001.93
2022-11-29T05:33:12.334Z,1001.93
2022-11-29T05:34:12.284Z,1001.95
2022-11-29T05:35:12.270Z,1001.96
2022-11-29T05:36:12.247Z,1001.98
2022-11-29T05:37:12.236Z,1001.94
2022-11-29T05:38:12.213Z,1001.94
2022-11-29T05:39:12.204Z,1001.96
2022-11-29T05:40:12.189Z,1001.97
2022-11-29T05:41:12.162Z,1002.00
2022-11-29T05:42:12.149Z,1002.04
2022-11-29T05:43:12.157Z,1002.02
2022-11-29T05:44:12.135Z,1002.04
2022-11-29T05:45:12.111Z,1002.03
2022-11-29T05:46:12.083Z,1002.00
2022-11-29T05:47:12.048Z,1002.03
2022-11-29T05:48:12.028Z,1002.03
2022-11-29T05:49:12.014Z,1002.03
2022-11-29T05:50:12.026Z,1002.04
2022-11-29T05:51:11.978Z,1002.04
2022-11-29T05:52:11.986Z,1002.08
2022-11-29T05:53:11.942Z,1002.04
2022-11-29T05:54:11.929Z,1002.08
2022-11-29T05:55:11.934Z,1002.13
2022-11-29T05:56:11.920Z,1002.12
2022-11-29T05:57:11.874Z,1002.18
2022-11-29T05:58:11.845Z,1002.12
2022-11-29T05:59:11.829Z,1002.18
2022-11-29T06:00:11.818Z,1002.17
2022-11-29T06:01:11.822Z,1002.18
2022-11-29T06:02:11.819Z,1002.21
2022-11-29T06:03:11.809Z,1002.22
2022-11-29T06:04:14.792Z,1002.20
2022-11-29T06:05:11.720Z,1002.24
2022-11-29T06:06:11.731Z,1002.23
2022-11-29T06:07:11.684Z,1002.21
2022-11-29T06:08:11.670Z,1002.21
2022-11-29T06:09:11.643Z,1002.26
2022-11-29T06:10:11.630Z,1002.26
2022-11-29T06:11:11.632Z,1002.31
2022-11-29T06:12:11.642Z,1002.31
2022-11-29T06:13:11.608Z,1002.29
2022-11-29T06:14:11.556Z,1002.31
2022-11-29T06:15:11.533Z,1002.36
2022-11-29T06:16:11.593Z,1002.34
2022-11-29T06:17:11.502Z,1002.34
2022-11-29T06:18:11.498Z,1002.33
2022-11-29T06:19:11.463Z,1002.36
2022-11-29T06:20:11.481Z,1002.40
2022-11-29T06:21:11.423Z,1002.40
2022-11-29T06:22:11.424Z,1002.35
2022-11-29T06:23:11.399Z,1002.43
2022-11-29T06:24:11.386Z,1002.43
2022-11-29T06:25:11.368Z,1002.42
2022-11-29T06:26:11.334Z,1002.43
2022-11-29T06:27:11.372Z,1002.41
2022-11-29T06:28:11.301Z,1002.47
2022-11-29T06:29:11.281Z,1002.44
2022-11-29T06:30:11.280Z,1002.43
2022-11-29T06:31:11.303Z,1002.44
2022-11-29T06:32:11.226Z,1002.43
2022-11-29T06:33:11.233Z,1002.49
2022-11-29T06:34:11.224Z,1002.42
2022-11-29T06:35:11.174Z,1002.51
2022-11-29T06:36:11.208Z,1002.48
2022-11-29T06:37:11.135Z,1002.48
2022-11-29T06:38:11.122Z,1002.47
2022-11-29T06:39:11.100Z,1002.45
2022-11-29T06:40:11.086Z,1002.48
2022-11-29T06:41:11.059Z,1002.51
2022-11-29T06:42:11.068Z,1002.51
2022-11-29T06:43:11.056Z,1002.54
2022-11-29T06:44:11.015Z,1002.49
2022-11-29T06:45:10.991Z,1002.57
2022-11-29T06:46:11.000Z,1002.57
2022-11-29T06:47:10.955Z,1002.58
2022-11-29T06:48:10.976Z,1002.56
2022-11-29T06:49:10.941Z,1002.57
2022-11-29T06:50:10.906Z,1002.62
2022-11-29T06:51:10.879Z,1002.64
2022-11-29T06:52:10.936Z,1002.63
2022-11-29T06:53:10.847Z,1002.65
2022-11-29T06:54:10.829Z,1002.63
2022-11-29T06:55:10.808Z,1002.64
2022-11-29T06:56:10.801Z,1002.66
2022-11-29T06:57:10.771Z,1002.67
2022-11-29T06:58:10.783Z,1002.67
2022-11-29T06:59:10.732Z,1002.68
2022-11-29T07:00:10.715Z,1002.71
2022-11-29T07:01:10.743Z,1002.75
2022-11-29T07:02:10.754Z,1002.74
2022-11-29T07:03:10.663Z,1002.74
2022-11-29T07:04:10.644Z,1002.74
2022-11-29T07:05:10.667Z,1002.76
2022-11-29T07:06:10.613Z,1002.78
2022-11-29T07:07:10.587Z,1002.80
2022-11-29T07:08:10.572Z,1002.82
2022-11-29T07:09:10.612Z,1002.80
2022-11-29T07:10:14.760Z,1002.79
2022-11-29T07:11:10.522Z,1002.82
2022-11-29T07:12:10.501Z,1002.82
2022-11-29T07:13:10.481Z,1002.83
2022-11-29T07:14:10.467Z,1002.87
2022-11-29T07:15:10.633Z,1002.86
2022-11-29T07:16:10.457Z,1002.91
2022-11-29T07:17:10.417Z,1002.89
2022-11-29T07:18:10.394Z,1002.90
2022-11-29T07:19:10.369Z,1002.88
2022-11-29T07:20:10.371Z,1002.87
2022-11-29T07:21:10.379Z,1002.90
2022-11-29T07:22:10.320Z,1002.90
2022-11-29T07:23:10.302Z,1002.89
2022-11-29T07:24:10.283Z,1002.96
2022-11-29T07:25:10.270Z,1002.93
2022-11-29T07:26:10.249Z,1002.99
2022-11-29T07:27:10.289Z,1002.96
2022-11-29T07:28:10.205Z,1003.01
2022-11-29T07:29:10.185Z,1002.94
2022-11-29T07:30:10.190Z,1002.95
2022-11-29T07:31:10.176Z,1003.00
2022-11-29T07:32:10.141Z,1002.97
2022-11-29T07:33:10.119Z,1002.97
2022-11-29T07:34:10.098Z,1003.00
2022-11-29T07:35:10.080Z,1003.01
2022-11-29T07:36:10.060Z,1002.98
2022-11-29T07:37:10.073Z,1002.98
2022-11-29T07:38:10.026Z,1003.02
2022-11-29T07:39:10.035Z,1002.97
2022-11-29T07:40:09.990Z,1003.02
2022-11-29T07:41:09.967Z,1003.05
2022-11-29T07:42:09.962Z,1003.04
2022-11-29T07:43:09.930Z,1003.05
2022-11-29T07:44:09.939Z,1003.06
2022-11-29T07:45:09.892Z,1003.11
2022-11-29T07:46:09.889Z,1003.10
2022-11-29T07:47:09.872Z,1003.13
2022-11-29T07:48:09.845Z,1003.16
2022-11-29T07:49:09.832Z,1003.18
2022-11-29T07:50:09.807Z,1003.15
2022-11-29T07:51:09.798Z,1003.16
2022-11-29T07:52:09.767Z,1003.17
2022-11-29T07:53:09.813Z,1003.19
2022-11-29T07:54:09.731Z,1003.18
2022-11-29T07:55:12.251Z,1003.23
2022-11-29T07:56:09.700Z,1003.22
2022-11-29T07:57:09.677Z,1003.22
2022-11-29T07:58:09.662Z,1003.27
2022-11-29T07:59:09.640Z,1003.21
2022-11-29T08:00:09.633Z,1003.16
2022-11-29T08:01:09.668Z,1003.26
2022-11-29T08:02:11.845Z,1003.25
2022-11-29T08:03:09.566Z,1003.24
2022-11-29T08:04:09.578Z,1003.29
2022-11-29T08:05:09.537Z,1003.27
2022-11-29T08:06:09.516Z,1003.23
2022-11-29T08:07:09.501Z,1003.23
2022-11-29T08:08:09.486Z,1003.29
2022-11-29T08:09:09.472Z,1003.22
2022-11-29T08:10:09.521Z,1003.24
2022-11-29T08:11:09.417Z,1003.24
2022-11-29T08:12:09.404Z,1003.26
2022-11-29T08:13:09.411Z,1003.25
2022-11-29T08:14:09.370Z,1003.25
2022-11-29T08:15:09.360Z,1003.26
2022-11-29T08:16:09.354Z,1003.29
2022-11-29T08:17:09.315Z,1003.32
2022-11-29T08:18:09.295Z,1003.28
2022-11-29T08:19:09.277Z,1003.34
2022-11-29T08:20:09.257Z,1003.35
2022-11-29T08:21:09.248Z,1003.34
2022-11-29T08:22:09.232Z,1003.38
2022-11-29T08:23:09.205Z,1003.39
2022-11-29T08:24:09.204Z,1003.34
2022-11-29T08:25:09.175Z,1003.37
2022-11-29T08:26:09.146Z,1003.35
2022-11-29T08:27:09.145Z,1003.34
2022-11-29T08:28:09.116Z,1003.37
2022-11-29T08:29:09.121Z,1003.37
2022-11-29T08:30:09.157Z,1003.40
2022-11-29T08:31:09.122Z,1003.39
2022-11-29T08:32:09.059Z,1003.41
2022-11-29T08:33:09.019Z,1003.41
2022-11-29T08:34:09.002Z,1003.42
2022-11-29T08:35:09.018Z,1003.42
2022-11-29T08:36:08.965Z,1003.45
2022-11-29T08:37:08.945Z,1003.44
2022-11-29T08:38:08.934Z,1003.43
2022-11-29T08:39:09.798Z,1003.44
2022-11-29T08:40:08.901Z,1003.40
2022-11-29T08:41:08.912Z,1003.40
2022-11-29T08:42:08.859Z,1003.44
2022-11-29T08:43:08.841Z,1003.46
2022-11-29T08:44:08.823Z,1003.44
2022-11-29T08:45:08.802Z,1003.48
2022-11-29T08:46:11.387Z,1003.47
2022-11-29T08:47:08.762Z,1003.51
2022-11-29T08:48:08.747Z,1003.49
2022-11-29T08:49:08.727Z,1003.55
2022-11-29T08:50:08.714Z,1003.50
2022-11-29T08:51:08.688Z,1003.53
2022-11-29T08:52:08.703Z,1003.47
2022-11-29T08:53:08.660Z,1003.48
2022-11-29T08:54:08.638Z,1003.50
2022-11-29T08:55:08.634Z,1003.51
2022-11-29T08:56:41.647Z,1003.52
2022-11-29T08:57:38.463Z,1003.55
2022-11-29T08:58:08.570Z,1003.53
2022-11-29T08:59:08.545Z,1003.55
2022-11-29T09:00:08.538Z,1003.57
2022-11-29T09:01:08.547Z,1003.56
2022-11-29T09:02:08.536Z,1003.62
2022-11-29T09:03:08.510Z,1003.59
2022-11-29T09:04:08.464Z,1003.61
2022-11-29T09:05:08.443Z,1003.61
2022-11-29T09:06:12.219Z,1003.60
2022-11-29T09:07:08.402Z,1003.66
2022-11-29T09:08:08.389Z,1003.63
2022-11-29T09:09:08.395Z,1003.65
2022-11-29T09:10:08.446Z,1003.63
2022-11-29T09:11:08.332Z,1003.65
2022-11-29T09:12:08.316Z,1003.64
2022-11-29T09:13:08.297Z,1003.65
2022-11-29T09:14:08.792Z,1003.69
2022-11-29T09:15:08.261Z,1003.70
2022-11-29T09:16:08.308Z,1003.71
2022-11-29T09:17:08.229Z,1003.73
2022-11-29T09:18:08.240Z,1003.78
2022-11-29T09:19:08.222Z,1003.78
2022-11-29T09:20:08.221Z,1003.81
2022-11-29T09:21:08.181Z,1003.81
2022-11-29T09:22:08.142Z,1003.78
2022-11-29T09:23:08.124Z,1003.83
2022-11-29T09:24:08.115Z,1003.81
2022-11-29T09:25:08.112Z,1003.78
2022-11-29T09:26:08.092Z,1003.82
2022-11-29T09:27:08.085Z,1003.86
2022-11-29T09:28:08.055Z,1003.86
2022-11-29T09:29:08.025Z,1003.86
2022-11-29T09:30:08.000Z,1003.89
2022-11-29T09:31:07.988Z,1003.89
2022-11-29T09:32:08.026Z,1003.90
2022-11-29T09:33:07.942Z,1003.91
2022-11-29T09:34:07.931Z,1003.91
2022-11-29T09:35:07.906Z,1003.95
2022-11-29T09:36:07.894Z,1003.92
2022-11-29T09:37:07.897Z,1003.92
2022-11-29T09:38:07.855Z,1003.94
2022-11-29T09:39:07.835Z,1003.93
2022-11-29T09:40:07.855Z,1003.92
2022-11-29T09:41:07.828Z,1003.94
2022-11-29T09:42:07.812Z,1003.99
2022-11-29T09:43:07.821Z,1003.98
2022-11-29T09:44:07.803Z,1003.97
2022-11-29T09:45:07.767Z,1003.99
2022-11-29T09:46:07.812Z,1004.00
2022-11-29T09:47:07.732Z,1004.00
2022-11-29T09:48:07.757Z,1004.01
2022-11-29T09:49:07.681Z,1004.04
2022-11-29T09:50:07.729Z,1004.05
2022-11-29T09:51:07.673Z,1004.05
2022-11-29T09:52:07.645Z,1004.08
2022-11-29T09:53:07.621Z,1004.08
2022-11-29T09:54:07.613Z,1004.13
2022-11-29T09:55:07.618Z,1004.09
2022-11-29T09:56:07.627Z,1004.13
2022-11-29T09:57:10.542Z,1004.13
2022-11-29T09:58:07.545Z,1004.16
2022-11-29T09:59:07.482Z,1004.12
2022-11-29T10:00:07.469Z,1004.14
2022-11-29T10:01:07.513Z,1004.13
2022-11-29T10:02:07.490Z,1004.17
2022-11-29T10:03:07.415Z,1004.17
2022-11-29T10:04:07.396Z,1004.15
2022-11-29T10:05:07.379Z,1004.14
2022-11-29T10:06:07.358Z,1004.16
2022-11-29T10:07:07.367Z,1004.18
2022-11-29T10:08:07.321Z,1004.14
2022-11-29T10:09:07.303Z,1004.17
2022-11-29T10:10:07.290Z,1004.15
2022-11-29T10:11:07.276Z,1004.16
2022-11-29T10:12:07.337Z,1004.16
2022-11-29T10:13:07.234Z,1004.18
2022-11-29T10:14:07.224Z,1004.18
2022-11-29T10:15:07.205Z,1004.15
2022-11-29T10:16:07.229Z,1004.14
2022-11-29T10:17:07.164Z,1004.17
2022-11-29T10:18:07.717Z,1004.16
2022-11-29T10:19:07.145Z,1004.14
2022-11-29T10:20:07.156Z,1004.18
2022-11-29T10:21:07.090Z,1004.17
2022-11-29T10:22:07.078Z,1004.17
2022-11-29T10:23:07.089Z,1004.18
2022-11-29T10:24:07.039Z,1004.16
2022-11-29T10:25:07.031Z,1004.15
2022-11-29T10:26:07.009Z,1004.16
2022-11-29T10:27:06.991Z,1004.14
2022-11-29T10:28:07.002Z,1004.13
2022-11-29T10:29:06.958Z,1004.10
2022-11-29T10:30:06.998Z,1004.12
2022-11-29T10:31:06.967Z,1004.10
2022-11-29T10:32:10.244Z,1004.07
2022-11-29T10:33:06.892Z,1004.08
2022-11-29T10:34:06.867Z,1004.05
2022-11-29T10:35:06.853Z,1004.05
2022-11-29T10:36:06.886Z,1004.00
2022-11-29T10:37:06.821Z,1004.00
2022-11-29T10:38:29.599Z,1003.97
2022-11-29T10:39:10.049Z,1003.97
2022-11-29T10:40:06.762Z,1004.01
2022-11-29T10:41:06.757Z,1003.99
2022-11-29T10:42:06.757Z,1004.03
2022-11-29T10:43:06.715Z,1004.02
2022-11-29T10:44:06.693Z,1004.00
2022-11-29T10:45:06.681Z,1004.02
2022-11-29T10:46:06.748Z,1004.04
2022-11-29T10:47:10.734Z,1003.99
2022-11-29T10:48:06.628Z,1004.00
2022-11-29T10:49:06.609Z,1004.02
2022-11-29T10:50:06.604Z,1004.03
2022-11-29T10:51:06.628Z,1004.04
2022-11-29T10:52:06.562Z,1004.03
2022-11-29T10:53:06.551Z,1004.06
2022-11-29T10:54:06.675Z,1004.02
2022-11-29T10:55:06.503Z,1004.01
2022-11-29T10:56:06.706Z,1004.04
2022-11-29T10:57:06.544Z,1004.10
2022-11-29T10:58:06.577Z,1004.04
2022-11-29T10:59:06.574Z,1004.07
2022-11-29T11:00:06.573Z,1004.07
2022-11-29T11:01:06.500Z,1004.06
2022-11-29T11:02:06.554Z,1004.05
2022-11-29T11:03:06.477Z,1004.08
2022-11-29T11:04:06.424Z,1004.06
2022-11-29T11:05:06.367Z,1004.11
2022-11-29T11:06:06.335Z,1004.09
2022-11-29T11:07:06.498Z,1004.06
2022-11-29T11:08:06.293Z,1004.07
2022-11-29T11:09:06.354Z,1004.14
2022-11-29T11:10:06.273Z,1004.10
2022-11-29T11:11:06.233Z,1004.10
2022-11-29T11:12:06.226Z,1004.10
2022-11-29T11:13:06.200Z,1004.11
2022-11-29T11:14:06.206Z,1004.08
2022-11-29T11:15:06.189Z,1004.07
2022-11-29T11:16:06.152Z,1004.07
2022-11-29T11:17:06.159Z,1004.09
2022-11-29T11:18:06.111Z,1004.06
2022-11-29T11:19:06.094Z,1004.08
2022-11-29T11:20:06.111Z,1004.11
2022-11-29T11:21:06.116Z,1004.12
2022-11-29T11:22:06.079Z,1004.15
2022-11-29T11:23:06.031Z,1004.10
2022-11-29T11:24:06.034Z,1004.10
2022-11-29T11:25:06.046Z,1004.09
2022-11-29T11:26:05.977Z,1004.10
2022-11-29T11:27:05.967Z,1004.13
2022-11-29T11:28:06.046Z,1004.12
2022-11-29T11:29:05.931Z,1004.10
2022-11-29T11:30:05.953Z,1004.11
2022-11-29T11:31:05.992Z,1004.11
2022-11-29T11:32:05.877Z,1004.08
2022-11-29T11:33:05.871Z,1004.11
2022-11-29T11:34:05.843Z,1004.09
2022-11-29T11:35:05.864Z,1004.08
2022-11-29T11:36:05.808Z,1004.08
2022-11-29T11:37:05.820Z,1004.14
2022-11-29T11:38:05.774Z,1004.14
2022-11-29T11:39:05.755Z,1004.20
2022-11-29T11:40:05.761Z,1004.18
2022-11-29T11:41:05.786Z,1004.20
2022-11-29T11:42:05.743Z,1004.18
2022-11-29T11:43:05.714Z,1004.17
2022-11-29T11:44:14.936Z,1004.20
2022-11-29T11:45:05.654Z,1004.23
2022-11-29T11:46:08.051Z,1004.21
2022-11-29T11:47:05.623Z,1004.24
2022-11-29T11:48:05.607Z,1004.22
2022-11-29T11:49:05.588Z,1004.23
2022-11-29T11:50:05.578Z,1004.26
2022-11-29T11:51:05.553Z,1004.22
2022-11-29T11:52:05.536Z,1004.25
2022-11-29T11:53:05.544Z,1004.28
2022-11-29T11:54:05.519Z,1004.29
2022-11-29T11:55:05.499Z,1004.26
2022-11-29T11:56:05.464Z,1004.25
2022-11-29T11:57:05.472Z,1004.29
2022-11-29T11:58:10.229Z,1004.26
2022-11-29T11:59:05.411Z,1004.24
2022-11-29T12:00:07.360Z,1004.27
2022-11-29T12:01:06.037Z,1004.30
2022-11-29T12:02:05.467Z,1004.25
2022-11-29T12:03:05.624Z,1004.27
2022-11-29T12:04:05.611Z,1004.27
2022-11-29T12:05:05.316Z,1004.23